Kostanay, Kazakhstan

6:44 AM +06 on October 21, 2019 (GMT +0600)
shandykol | | Change Station

Elev 554 ft 53.21 °N, 63.62 °E | Updated 5 seconds ago

Clear
Clear
15.4 °F
Feels Like 15 °F
N
0
Wind Variable Wind from WSW
Gusts 0.0 mph

Today
High -- | Low -- °F
--% Chance of Precip.
Yesterday
High -- | Low -- °F
Precip. -- in
Pressure 30.57 in
Visibility -9999.0 miles
Clouds
Windchill 15 °F
Dew Point 12 °F
Humidity 85%
Rainfall 0.00 in
Snow Depth Not available.
8:22 AM 6:37 PM
Waning Gibbous, 55% visible
METAR UAUU 210030Z 20002MPS CAVOK M08/M09 Q1035 R33/CLRD70 NOSIG RMK QFE760/1014
Pressure 30.57 in
Visibility -9999.0 miles
Clouds
Windchill 15 °F
Dew Point 12 °F
Humidity 85%
Rainfall 0.00 in
Snow Depth Not available.
8:22 AM 6:37 PM
Waning Gibbous, 55% visible
METAR UAUU 210030Z 20002MPS CAVOK M08/M09 Q1035 R33/CLRD70 NOSIG RMK QFE760/1014

Get Severe Weather Alerts

Thanks for signing up!

Be on the lookout for a verification email in your inbox.

You'll start receiving the daily forecast at 6 AM.

×

10-Day Weather Forecast

×

Almanac

Astronomy

Oct. 21, 2019 Rise Set
Actual Time
Civil Twilight
Nautical Twilight
Astronomical Twilight
Moon
Length of Visible Light
Length of Day
Tomorrow will be .
, % of the Moon is Illuminated

Today's Extremes

Country Highs Country Lows

Community

WunderPhotos

Category 6

Welcome to Category 6. This is the collective home for Weather Underground's featured writeups by Dr. Jeff Masters (right), Bob Henson (left), Chris Burt, and other regular contributors.

Nearby

Air Quality

  Air Quality AQ Index Pollutant
Not available.

Snow Depth

Station Depth Elevation

Earthquake Activity

City Distance Mag. Time & Date
Minimum magnitude displayed is 2.5.

Coastal Water Temperatures

Place Temperature

Stations

Nearby Weather Stations

Station Location Temp. Windchill Dew Point Humidity Wind Precip. Elev Updated Type